createdAt,value
2022-07-29T00:00:02.377Z,92.58
2022-07-29T00:02:33.225Z,93.08
2022-07-29T00:05:00.529Z,93.75
2022-07-29T00:07:27.631Z,93.81
2022-07-29T00:09:54.883Z,93.92
2022-07-29T00:12:25.560Z,94.23
2022-07-29T00:14:56.287Z,94.45
2022-07-29T00:17:24.872Z,94.93
2022-07-29T00:19:52.347Z,95.15
2022-07-29T00:22:20.576Z,95.65
2022-07-29T00:24:51.015Z,95.45
2022-07-29T00:27:19.177Z,96.24
2022-07-29T00:29:46.424Z,95.80
2022-07-29T00:32:13.633Z,96.33
2022-07-29T00:34:59.623Z,96.54
2022-07-29T00:37:26.859Z,96.62
2022-07-29T00:39:54.009Z,96.99
2022-07-29T00:42:21.351Z,97.73
2022-07-29T00:44:48.501Z,97.24
2022-07-29T00:47:15.837Z,97.93
2022-07-29T00:49:43.522Z,97.97
2022-07-29T00:52:12.507Z,98.36
2022-07-29T00:54:44.595Z,98.53
2022-07-29T00:57:13.210Z,98.88
2022-07-29T00:59:40.506Z,99.30
2022-07-29T01:02:07.809Z,99.50
2022-07-29T01:04:36.222Z,99.58
2022-07-29T01:07:04.091Z,99.76
2022-07-29T01:09:46.035Z,100.00
2022-07-29T01:12:25.608Z,100.00
2022-07-29T01:14:54.462Z,100.00
2022-07-29T01:17:33.832Z,100.00
2022-07-29T01:20:07.593Z,100.00
2022-07-29T01:22:40.420Z,100.00
2022-07-29T01:25:41.509Z,100.00
2022-07-29T01:28:14.006Z,100.00
2022-07-29T01:30:45.704Z,100.00
2022-07-29T01:33:36.577Z,100.00
2022-07-29T01:36:12.029Z,100.00
2022-07-29T01:38:42.527Z,100.00
2022-07-29T01:41:18.697Z,100.00
2022-07-29T01:43:57.483Z,100.00
2022-07-29T01:46:37.059Z,100.00
2022-07-29T01:49:15.214Z,100.00
2022-07-29T01:51:52.841Z,100.00
2022-07-29T01:54:21.673Z,100.00
2022-07-29T01:56:52.250Z,100.00
2022-07-29T01:59:21.619Z,100.00
2022-07-29T02:01:51.757Z,100.00
2022-07-29T02:04:26.631Z,100.00
2022-07-29T02:07:01.804Z,100.00
2022-07-29T02:09:30.558Z,100.00
2022-07-29T02:12:00.429Z,100.00
2022-07-29T02:14:29.684Z,100.00
2022-07-29T02:16:59.497Z,100.00
2022-07-29T02:19:28.910Z,100.00
2022-07-29T02:21:58.987Z,100.00
2022-07-29T02:24:27.584Z,97.74
2022-07-29T02:26:57.697Z,88.27
2022-07-29T02:29:27.546Z,79.74
2022-07-29T02:31:56.196Z,72.64
2022-07-29T02:34:24.528Z,66.88
2022-07-29T02:36:53.454Z,62.70
2022-07-29T02:39:22.578Z,58.78
2022-07-29T02:41:56.395Z,55.30
2022-07-29T02:44:31.282Z,52.17
2022-07-29T02:47:16.585Z,47.72
2022-07-29T02:50:09.542Z,45.31
2022-07-29T02:52:41.063Z,43.46
2022-07-29T02:55:24.124Z,43.37
2022-07-29T02:58:30.010Z,40.84
2022-07-29T03:01:02.188Z,39.75
2022-07-29T03:03:33.475Z,38.16
2022-07-29T03:06:03.628Z,36.20
2022-07-29T03:08:32.821Z,35.20
2022-07-29T03:11:01.853Z,34.13
2022-07-29T03:13:30.668Z,32.99
2022-07-29T03:15:59.019Z,31.64
2022-07-29T03:18:27.059Z,30.36
2022-07-29T03:20:54.376Z,30.09
2022-07-29T03:23:25.100Z,28.74
2022-07-29T03:25:52.544Z,28.97
2022-07-29T03:28:20.654Z,28.54
2022-07-29T03:30:50.482Z,27.27
2022-07-29T03:33:18.137Z,26.40
2022-07-29T03:35:46.292Z,26.31
2022-07-29T03:38:13.470Z,25.67
2022-07-29T03:41:02.572Z,24.18
2022-07-29T03:43:33.162Z,23.77
2022-07-29T03:46:03.173Z,23.67
2022-07-29T03:48:34.025Z,23.15
2022-07-29T03:51:01.854Z,22.34
2022-07-29T03:53:29.663Z,21.94
2022-07-29T03:56:00.813Z,21.45
2022-07-29T03:58:29.077Z,21.62
2022-07-29T04:00:56.671Z,21.08
2022-07-29T04:03:24.327Z,20.47
2022-07-29T04:06:03.088Z,19.74
2022-07-29T04:08:30.212Z,20.33
2022-07-29T04:10:57.499Z,20.37
2022-07-29T04:13:24.700Z,19.45
2022-07-29T04:15:54.844Z,18.61
2022-07-29T04:18:22.231Z,18.44
2022-07-29T04:20:49.266Z,17.82
2022-07-29T04:23:16.625Z,17.54
2022-07-29T04:25:44.187Z,17.13
2022-07-29T04:28:11.545Z,17.19
2022-07-29T04:30:39.046Z,16.86
2022-07-29T04:33:08.137Z,16.70
2022-07-29T04:35:38.929Z,16.32
2022-07-29T04:38:17.358Z,16.27
2022-07-29T04:40:44.503Z,15.79
2022-07-29T04:43:11.975Z,15.35
2022-07-29T04:45:41.374Z,14.96
2022-07-29T04:48:08.706Z,15.01
2022-07-29T04:50:38.922Z,14.25
2022-07-29T04:53:06.078Z,14.45
2022-07-29T04:55:33.222Z,14.37
2022-07-29T04:58:00.478Z,13.93
2022-07-29T05:00:33.306Z,14.06
2022-07-29T05:03:01.156Z,14.52
2022-07-29T05:05:28.236Z,13.80
2022-07-29T05:07:56.319Z,13.62
2022-07-29T05:10:23.767Z,13.32
2022-07-29T05:12:50.834Z,12.74
2022-07-29T05:15:18.740Z,12.90
2022-07-29T05:17:46.065Z,14.69
2022-07-29T05:20:13.112Z,15.87
2022-07-29T05:22:40.232Z,15.10
2022-07-29T05:25:09.230Z,15.87
2022-07-29T05:27:38.084Z,16.47
2022-07-29T05:30:05.574Z,16.59
2022-07-29T05:32:32.933Z,15.52
2022-07-29T05:34:59.992Z,14.57
2022-07-29T05:37:27.120Z,13.67
2022-07-29T05:39:57.188Z,12.56
2022-07-29T05:42:26.972Z,11.94
2022-07-29T05:44:54.301Z,11.53
2022-07-29T05:47:21.434Z,11.92
2022-07-29T05:49:48.640Z,12.19
2022-07-29T05:52:16.461Z,12.08
2022-07-29T05:54:44.062Z,12.38
2022-07-29T05:57:22.525Z,12.12
2022-07-29T05:59:51.404Z,12.37
2022-07-29T06:02:18.704Z,12.25
2022-07-29T06:04:46.105Z,12.37
2022-07-29T06:07:13.511Z,12.08
2022-07-29T06:09:40.773Z,12.38
2022-07-29T06:12:07.938Z,13.00
2022-07-29T06:14:36.464Z,15.22
2022-07-29T06:17:03.718Z,14.79
2022-07-29T06:19:30.812Z,13.67
2022-07-29T06:21:58.015Z,12.55
2022-07-29T06:24:25.023Z,12.23
2022-07-29T06:26:52.032Z,10.89
2022-07-29T06:29:19.367Z,10.67
2022-07-29T06:31:46.474Z,11.27
2022-07-29T06:34:13.692Z,12.73
2022-07-29T06:36:41.288Z,13.50
2022-07-29T06:39:09.529Z,14.15
2022-07-29T06:41:38.664Z,13.16
2022-07-29T06:44:10.331Z,12.63
2022-07-29T06:46:37.674Z,12.97
2022-07-29T06:49:05.635Z,12.22
2022-07-29T06:51:33.111Z,13.02
2022-07-29T06:54:02.712Z,13.58
2022-07-29T06:56:39.759Z,15.18
2022-07-29T06:59:08.852Z,14.57
2022-07-29T07:01:40.826Z,16.28
2022-07-29T07:04:09.895Z,18.81
2022-07-29T07:06:38.082Z,21.23
2022-07-29T07:09:05.874Z,21.79
2022-07-29T07:11:33.071Z,21.88
2022-07-29T07:14:03.553Z,23.48
2022-07-29T07:16:32.585Z,24.67
2022-07-29T07:19:00.324Z,25.50
2022-07-29T07:21:30.258Z,26.08
2022-07-29T07:23:58.480Z,28.17
2022-07-29T07:26:26.276Z,28.83
2022-07-29T07:28:53.401Z,29.96
2022-07-29T07:31:21.193Z,31.22
2022-07-29T07:33:48.393Z,32.00
2022-07-29T07:36:15.654Z,33.09
2022-07-29T07:38:43.191Z,34.79
2022-07-29T07:41:10.322Z,36.65
2022-07-29T07:43:37.516Z,37.21
2022-07-29T07:46:04.838Z,36.42
2022-07-29T07:48:32.047Z,35.79
2022-07-29T07:50:59.812Z,35.86
2022-07-29T07:53:27.037Z,36.84
2022-07-29T07:56:09.789Z,36.20
2022-07-29T07:58:37.706Z,36.75
2022-07-29T08:01:04.811Z,37.41
2022-07-29T08:03:31.908Z,36.23
2022-07-29T08:06:00.079Z,35.93
2022-07-29T08:08:27.253Z,36.14
2022-07-29T08:10:54.327Z,36.76
2022-07-29T08:13:22.893Z,35.37
2022-07-29T08:15:58.900Z,35.24
2022-07-29T08:18:30.552Z,35.49
2022-07-29T08:20:58.451Z,35.18
2022-07-29T08:23:25.649Z,35.49
2022-07-29T08:25:54.785Z,35.92
2022-07-29T08:28:22.186Z,35.38
2022-07-29T08:30:53.605Z,34.27
2022-07-29T08:33:20.773Z,33.62
2022-07-29T08:35:48.176Z,34.59
2022-07-29T08:38:15.275Z,34.96
2022-07-29T08:40:42.419Z,34.97
2022-07-29T08:43:10.281Z,34.80
2022-07-29T08:45:47.644Z,34.77
2022-07-29T08:48:19.340Z,35.83
2022-07-29T08:50:48.270Z,35.30
2022-07-29T08:53:18.721Z,35.54
2022-07-29T08:55:48.433Z,34.97
2022-07-29T08:58:16.246Z,34.74
2022-07-29T09:00:51.374Z,34.28
2022-07-29T09:03:21.668Z,34.56
2022-07-29T09:05:49.459Z,34.23
2022-07-29T09:08:17.676Z,35.35
2022-07-29T09:10:45.365Z,35.54
2022-07-29T09:13:12.775Z,36.13
2022-07-29T09:15:39.936Z,36.67
2022-07-29T09:18:06.928Z,37.04
2022-07-29T09:20:52.561Z,35.01
2022-07-29T09:23:22.881Z,35.75
2022-07-29T09:25:51.728Z,36.13
2022-07-29T09:28:19.158Z,36.38
2022-07-29T09:30:59.348Z,36.48
2022-07-29T09:33:35.690Z,36.99
2022-07-29T09:36:10.374Z,37.16
2022-07-29T09:38:38.489Z,36.90
2022-07-29T09:41:09.083Z,35.31
2022-07-29T09:43:36.327Z,33.47
2022-07-29T09:46:14.749Z,34.42
2022-07-29T09:48:42.244Z,36.04
2022-07-29T09:51:24.263Z,36.15
2022-07-29T09:53:55.804Z,35.79
2022-07-29T09:56:42.992Z,35.91
2022-07-29T09:59:12.271Z,35.78
2022-07-29T10:01:39.404Z,36.37
2022-07-29T10:04:07.768Z,36.11
2022-07-29T10:06:34.811Z,36.37
2022-07-29T10:09:10.339Z,36.00
2022-07-29T10:11:56.206Z,36.60
2022-07-29T10:14:24.196Z,36.80
2022-07-29T10:16:51.847Z,36.00
2022-07-29T10:19:18.952Z,35.90
2022-07-29T10:21:46.412Z,35.12
2022-07-29T10:24:15.103Z,34.60
2022-07-29T10:26:43.237Z,34.85
2022-07-29T10:29:10.567Z,34.91
2022-07-29T10:31:57.330Z,34.65
2022-07-29T10:34:49.170Z,34.06
2022-07-29T10:37:36.030Z,32.99
2022-07-29T10:40:45.578Z,32.67
2022-07-29T10:43:37.596Z,32.02
2022-07-29T10:46:05.742Z,32.46
2022-07-29T10:48:34.977Z,33.00
2022-07-29T10:51:05.154Z,33.09
2022-07-29T10:53:47.422Z,33.30
2022-07-29T10:56:28.510Z,34.41
2022-07-29T10:59:21.569Z,35.32
2022-07-29T11:01:53.404Z,36.04
2022-07-29T11:04:44.672Z,36.57
2022-07-29T11:07:15.172Z,36.73
2022-07-29T11:09:42.463Z,36.94
2022-07-29T11:12:52.259Z,37.91
2022-07-29T11:15:22.658Z,36.76
2022-07-29T11:17:55.256Z,37.40
2022-07-29T11:20:45.940Z,37.66
2022-07-29T11:23:33.478Z,36.17
2022-07-29T11:26:13.780Z,35.75
2022-07-29T11:28:55.658Z,34.85
2022-07-29T11:31:42.527Z,35.76
2022-07-29T11:34:33.333Z,36.05
2022-07-29T11:37:14.443Z,36.27
2022-07-29T11:39:48.694Z,35.99
2022-07-29T11:42:32.347Z,36.30
2022-07-29T11:45:43.524Z,36.15
2022-07-29T11:48:28.955Z,36.52
2022-07-29T11:50:54.100Z,36.92
2022-07-29T11:53:22.260Z,36.91
2022-07-29T11:55:58.398Z,37.19
2022-07-29T11:58:26.515Z,37.39
2022-07-29T12:00:55.343Z,36.94
2022-07-29T12:03:34.858Z,36.04
2022-07-29T12:06:15.072Z,36.13
2022-07-29T12:08:44.367Z,37.72
2022-07-29T12:11:21.312Z,37.07
2022-07-29T12:13:50.309Z,37.65
2022-07-29T12:16:26.134Z,36.94
2022-07-29T12:19:02.236Z,35.84
2022-07-29T12:21:45.715Z,36.55
2022-07-29T12:24:20.325Z,36.68
2022-07-29T12:27:00.401Z,38.25
2022-07-29T12:29:35.531Z,37.64
2022-07-29T12:32:14.412Z,38.39
2022-07-29T12:34:46.722Z,36.73
2022-07-29T12:37:13.977Z,37.34
2022-07-29T12:39:49.267Z,37.63
2022-07-29T12:42:18.410Z,37.99
2022-07-29T12:44:47.582Z,38.18
2022-07-29T12:47:14.996Z,38.93
2022-07-29T12:49:45.457Z,39.23
2022-07-29T12:52:33.880Z,39.05
2022-07-29T12:55:02.319Z,38.66
2022-07-29T12:57:32.729Z,38.11
2022-07-29T13:00:14.956Z,38.62
2022-07-29T13:02:43.744Z,38.25
2022-07-29T13:05:12.464Z,38.26
2022-07-29T13:07:54.164Z,38.21
2022-07-29T13:10:24.333Z,39.46
2022-07-29T13:13:09.205Z,36.99
2022-07-29T13:15:38.256Z,36.61
2022-07-29T13:18:06.568Z,37.69
2022-07-29T13:20:33.838Z,38.15
2022-07-29T13:23:01.909Z,37.54
2022-07-29T13:25:33.050Z,37.41
2022-07-29T13:28:00.965Z,37.33
2022-07-29T13:30:28.109Z,37.93
2022-07-29T13:32:56.242Z,37.48
2022-07-29T13:35:23.258Z,37.34
2022-07-29T13:37:51.968Z,37.02
2022-07-29T13:40:19.629Z,37.53
2022-07-29T13:42:46.790Z,38.23
2022-07-29T13:45:14.161Z,37.84
2022-07-29T13:47:46.007Z,36.25
2022-07-29T13:50:16.559Z,36.57
2022-07-29T13:52:44.076Z,36.94
2022-07-29T13:55:11.102Z,36.83
2022-07-29T13:57:38.172Z,36.64
2022-07-29T14:00:05.698Z,36.08
2022-07-29T14:02:35.543Z,36.34
2022-07-29T14:05:07.647Z,36.22
2022-07-29T14:07:35.598Z,36.64
2022-07-29T14:10:03.497Z,35.85
2022-07-29T14:12:30.560Z,35.76
2022-07-29T14:14:57.882Z,35.63
2022-07-29T14:17:25.223Z,36.40
2022-07-29T14:19:52.224Z,36.43
2022-07-29T14:22:20.159Z,37.04
2022-07-29T14:24:50.219Z,37.54
2022-07-29T14:27:17.522Z,37.31
2022-07-29T14:29:44.868Z,37.23
2022-07-29T14:32:12.532Z,37.51
2022-07-29T14:34:40.672Z,37.97
2022-07-29T14:37:08.279Z,37.77
2022-07-29T14:39:42.557Z,37.90
2022-07-29T14:42:12.324Z,38.20
2022-07-29T14:44:42.509Z,38.46
2022-07-29T14:47:10.055Z,39.45
2022-07-29T14:49:37.064Z,39.40
2022-07-29T14:52:04.666Z,39.67
2022-07-29T14:54:31.933Z,39.86
2022-07-29T14:56:59.145Z,40.65
2022-07-29T14:59:27.300Z,41.36
2022-07-29T15:01:54.934Z,42.16
2022-07-29T15:04:22.268Z,42.48
2022-07-29T15:06:49.721Z,42.52
2022-07-29T15:09:16.979Z,43.26
2022-07-29T15:11:44.038Z,43.38
2022-07-29T15:14:12.022Z,43.62
2022-07-29T15:16:43.813Z,43.72
2022-07-29T15:19:14.297Z,43.36
2022-07-29T15:21:48.688Z,43.83
2022-07-29T15:24:17.917Z,44.16
2022-07-29T15:26:45.697Z,44.30
2022-07-29T15:29:13.122Z,44.31
2022-07-29T15:31:41.138Z,43.78
2022-07-29T15:34:08.607Z,43.69
2022-07-29T15:36:51.950Z,43.88
2022-07-29T15:39:22.193Z,43.86
2022-07-29T15:41:49.756Z,44.32
2022-07-29T15:44:16.864Z,44.50
2022-07-29T15:47:02.823Z,45.11
2022-07-29T15:49:47.243Z,45.35
2022-07-29T15:52:24.963Z,45.10
2022-07-29T15:54:55.667Z,44.71
2022-07-29T15:57:23.978Z,44.99
2022-07-29T15:59:52.084Z,46.19
2022-07-29T16:02:19.265Z,44.78
2022-07-29T16:04:46.446Z,44.72
2022-07-29T16:07:14.318Z,46.15
2022-07-29T16:09:42.191Z,47.33
2022-07-29T16:12:15.082Z,47.94
2022-07-29T16:14:45.843Z,49.12
2022-07-29T16:17:14.382Z,49.19
2022-07-29T16:19:43.922Z,49.99
2022-07-29T16:22:11.786Z,50.40
2022-07-29T16:24:39.377Z,50.60
2022-07-29T16:27:06.603Z,50.89
2022-07-29T16:29:33.752Z,51.44
2022-07-29T16:32:01.556Z,51.50
2022-07-29T16:34:29.762Z,51.76
2022-07-29T16:36:56.831Z,51.69
2022-07-29T16:39:23.858Z,52.05
2022-07-29T16:41:50.946Z,51.89
2022-07-29T16:44:18.020Z,52.07
2022-07-29T16:46:45.918Z,51.90
2022-07-29T16:49:16.975Z,51.99
2022-07-29T16:51:48.028Z,52.12
2022-07-29T16:54:15.289Z,51.84
2022-07-29T16:56:42.374Z,52.43
2022-07-29T16:59:09.368Z,52.89
2022-07-29T17:01:36.605Z,53.57
2022-07-29T17:04:06.510Z,53.99
2022-07-29T17:06:40.170Z,54.80
2022-07-29T17:09:09.450Z,54.73
2022-07-29T17:11:51.772Z,55.23
2022-07-29T17:14:24.063Z,55.61
2022-07-29T17:17:00.424Z,56.21
2022-07-29T17:19:30.858Z,56.76
2022-07-29T17:22:06.352Z,56.85
2022-07-29T17:24:38.323Z,57.04
2022-07-29T17:27:06.275Z,57.13
2022-07-29T17:29:34.978Z,57.73
2022-07-29T17:32:04.268Z,57.56
2022-07-29T17:34:42.783Z,57.89
2022-07-29T17:37:11.270Z,57.98
2022-07-29T17:39:41.455Z,57.99
2022-07-29T17:42:12.993Z,57.97
2022-07-29T17:44:40.628Z,58.21
2022-07-29T17:47:15.650Z,58.95
2022-07-29T17:49:45.462Z,59.21
2022-07-29T17:52:12.709Z,59.35
2022-07-29T17:54:40.258Z,60.11
2022-07-29T17:57:07.414Z,60.25
2022-07-29T17:59:34.420Z,60.24
2022-07-29T18:02:01.943Z,60.49
2022-07-29T18:04:31.051Z,61.11
2022-07-29T18:06:58.321Z,61.17
2022-07-29T18:09:25.808Z,61.56
2022-07-29T18:11:53.004Z,62.03
2022-07-29T18:14:20.002Z,62.21
2022-07-29T18:16:47.166Z,62.42
2022-07-29T18:19:14.454Z,62.54
2022-07-29T18:21:51.181Z,63.17
2022-07-29T18:24:23.949Z,63.79
2022-07-29T18:26:51.078Z,63.91
2022-07-29T18:29:18.096Z,64.00
2022-07-29T18:31:45.282Z,64.71
2022-07-29T18:34:12.447Z,65.14
2022-07-29T18:36:39.450Z,65.35
2022-07-29T18:39:06.569Z,65.19
2022-07-29T18:41:34.089Z,65.52
2022-07-29T18:44:01.163Z,65.84
2022-07-29T18:46:28.603Z,66.23
2022-07-29T18:48:57.386Z,66.47
2022-07-29T18:51:24.473Z,66.54
2022-07-29T18:53:52.576Z,66.91
2022-07-29T18:56:19.730Z,67.44
2022-07-29T18:58:46.871Z,67.93
2022-07-29T19:01:16.727Z,68.38
2022-07-29T19:03:44.136Z,68.91
2022-07-29T19:06:11.180Z,68.91
2022-07-29T19:08:38.367Z,69.02
2022-07-29T19:11:05.517Z,69.47
2022-07-29T19:13:33.684Z,69.47
2022-07-29T19:16:00.748Z,69.82
2022-07-29T19:18:27.872Z,70.40
2022-07-29T19:20:54.940Z,70.38
2022-07-29T19:23:22.553Z,70.72
2022-07-29T19:25:53.760Z,70.94
2022-07-29T19:28:22.352Z,71.26
2022-07-29T19:30:49.832Z,71.33
2022-07-29T19:38:15.092Z,71.29
2022-07-29T19:40:47.770Z,71.56
2022-07-29T19:43:50.504Z,71.96
2022-07-29T19:46:13.957Z,72.14
2022-07-29T19:48:57.740Z,72.48
2022-07-29T19:51:25.685Z,72.69
2022-07-29T19:53:52.745Z,72.67
2022-07-29T19:56:19.895Z,73.09
2022-07-29T19:58:46.884Z,74.12
2022-07-29T20:01:15.081Z,74.36
2022-07-29T20:03:42.429Z,74.78
2022-07-29T20:06:09.468Z,75.26
2022-07-29T20:08:37.138Z,75.96
2022-07-29T20:11:04.176Z,77.31
2022-07-29T20:13:33.286Z,77.58
2022-07-29T20:16:01.988Z,77.83
2022-07-29T20:18:29.293Z,78.27
2022-07-29T20:20:57.684Z,78.94
2022-07-29T20:23:25.354Z,78.72
2022-07-29T20:25:52.796Z,78.50
2022-07-29T20:28:22.385Z,78.53
2022-07-29T20:30:50.014Z,78.90
2022-07-29T20:33:17.177Z,78.46
2022-07-29T20:35:44.300Z,78.69
2022-07-29T20:38:13.947Z,79.00
2022-07-29T20:40:44.902Z,79.36
2022-07-29T20:43:12.092Z,79.08
2022-07-29T20:45:39.660Z,79.09
2022-07-29T20:48:08.341Z,79.11
2022-07-29T20:50:35.571Z,78.72
2022-07-29T20:53:02.542Z,78.43
2022-07-29T20:55:29.632Z,78.27
2022-07-29T20:57:56.667Z,77.69
2022-07-29T21:00:23.723Z,77.18
2022-07-29T21:02:50.788Z,76.69
2022-07-29T21:05:18.075Z,76.22
2022-07-29T21:07:45.255Z,74.98
2022-07-29T21:10:14.357Z,74.48
2022-07-29T21:12:42.141Z,74.03
2022-07-29T21:15:13.537Z,73.96
2022-07-29T21:17:46.702Z,73.60
2022-07-29T21:20:18.951Z,73.54
2022-07-29T21:22:46.102Z,73.64
2022-07-29T21:25:14.085Z,73.92
2022-07-29T21:28:07.397Z,73.89
2022-07-29T21:30:36.060Z,73.81
2022-07-29T21:33:06.160Z,74.10
2022-07-29T21:36:01.780Z,74.32
2022-07-29T21:38:20.786Z,74.52
2022-07-29T21:40:50.184Z,74.21
2022-07-29T21:43:18.849Z,74.72
2022-07-29T21:45:50.373Z,74.66
2022-07-29T21:48:18.906Z,74.63
2022-07-29T21:50:47.686Z,74.72
2022-07-29T21:53:15.947Z,75.20
2022-07-29T21:55:43.520Z,75.32
2022-07-29T21:58:15.480Z,76.23
2022-07-29T22:00:43.103Z,76.43
2022-07-29T22:03:10.376Z,76.92
2022-07-29T22:05:38.024Z,77.04
2022-07-29T22:08:06.047Z,77.31
2022-07-29T22:10:33.703Z,77.81
2022-07-29T22:13:01.802Z,78.21
2022-07-29T22:15:30.265Z,78.71
2022-07-29T22:18:28.431Z,79.41
2022-07-29T22:20:55.840Z,79.29
2022-07-29T22:23:22.808Z,79.76
2022-07-29T22:25:50.013Z,79.91
2022-07-29T22:28:17.973Z,80.39
2022-07-29T22:30:45.313Z,80.53
2022-07-29T22:33:17.909Z,80.83
2022-07-29T22:35:48.557Z,81.02
2022-07-29T22:38:18.242Z,80.94
2022-07-29T22:40:48.703Z,81.41
2022-07-29T22:43:17.802Z,81.55
2022-07-29T22:45:45.058Z,81.67
2022-07-29T22:48:12.263Z,81.85
2022-07-29T22:50:39.428Z,82.49
2022-07-29T22:53:06.742Z,82.28
2022-07-29T22:55:33.783Z,82.57
2022-07-29T22:58:01.448Z,82.92
2022-07-29T23:00:28.848Z,82.62
2022-07-29T23:02:58.186Z,83.35
2022-07-29T23:05:25.425Z,83.33
2022-07-29T23:07:52.555Z,83.79
2022-07-29T23:10:23.122Z,84.60
2022-07-29T23:12:52.141Z,85.12
2022-07-29T23:15:21.641Z,85.32
2022-07-29T23:17:53.442Z,85.46
2022-07-29T23:20:20.574Z,86.07
2022-07-29T23:22:51.922Z,85.79
2022-07-29T23:25:19.131Z,85.25
2022-07-29T23:27:51.518Z,85.63
2022-07-29T23:30:23.204Z,85.16
2022-07-29T23:32:55.793Z,85.62
2022-07-29T23:35:32.967Z,85.71
2022-07-29T23:38:00.175Z,86.54
2022-07-29T23:40:27.414Z,86.45
2022-07-29T23:43:02.638Z,86.79
2022-07-29T23:45:42.520Z,87.13
2022-07-29T23:48:14.057Z,87.22
2022-07-29T23:50:50.257Z,87.13
2022-07-29T23:53:24.917Z,87.41
2022-07-29T23:56:12.218Z,87.94
2022-07-29T23:58:56.908Z,87.81
